Time;durP1;ratioP1;P1;durP2;ratioP2;P2;SDS_P1;SDS_P2;PMS_P1;PMS_P2;Temp;Humidity;BMP_temperature;BMP_pressure;BME280_temperature;BME280_humidity;BME280_pressure;Samples;Min_cycle;Max_cycle;Signal;HPM_P1;HPM_P2
2022/09/05 00:03:29;;;;;;;3.80;2.50;;;;;;;11.35;68.30;101273.65;130496;1268;109139;-77
2022/09/05 00:07:00;;;;;;;3.20;2.40;;;;;;;11.25;68.18;101273.48;130475;1268;109152;-77
2022/09/05 00:10:34;;;;;;;3.20;2.00;;;;;;;11.18;68.36;101277.82;130515;1267;108203;-77
2022/09/05 00:14:18;;;;;;;5.00;2.30;;;;;;;11.14;68.23;101275.80;130536;1268;109133;-77
2022/09/05 00:17:50;;;;;;;3.00;2.00;;;;;;;11.13;68.35;101275.94;130480;1267;109747;-78
2022/09/05 00:21:19;;;;;;;;;;;;;;;11.09;68.68;101274.69;129547;1267;1362429;-78
2022/09/05 00:24:57;;;;;;;3.10;2.30;;;;;;;11.08;68.23;101271.41;130487;1268;109265;-78
2022/09/05 00:28:28;;;;;;;3.70;2.30;;;;;;;11.02;68.47;101270.98;130510;1268;109171;-78
2022/09/05 00:32:03;;;;;;;4.70;2.60;;;;;;;10.95;68.54;101270.70;130486;1266;109152;-77
2022/09/05 00:35:36;;;;;;;4.20;2.30;;;;;;;10.88;68.68;101277.66;130485;1268;110985;-77
2022/09/05 00:39:04;;;;;;;3.50;2.30;;;;;;;10.79;68.70;101275.60;130479;1268;109133;-78
2022/09/05 00:42:28;;;;;;;4.20;2.50;;;;;;;10.69;68.51;101270.19;130549;1268;109140;-78
2022/09/05 00:45:57;;;;;;;5.60;2.20;;;;;;;10.59;68.55;101272.44;130554;1268;109127;-78
2022/09/05 00:49:24;;;;;;;3.30;2.30;;;;;;;10.50;68.71;101267.48;130712;1268;109130;-78
2022/09/05 00:52:56;;;;;;;3.70;2.30;;;;;;;10.41;68.69;101264.30;130424;1268;109224;-77
2022/09/05 00:56:46;;;;;;;2.50;2.00;;;;;;;10.34;68.77;101263.67;130387;1268;109117;-78
2022/09/05 01:00:17;;;;;;;3.80;2.10;;;;;;;10.32;68.63;101263.70;130398;1268;109168;-78
2022/09/05 01:04:06;;;;;;;3.20;2.20;;;;;;;10.30;68.69;101264.70;130391;1268;109649;-77
2022/09/05 01:07:44;;;;;;;3.30;2.40;;;;;;;10.28;68.78;101262.44;130406;1268;109137;-77
2022/09/05 01:11:17;;;;;;;3.50;2.40;;;;;;;10.26;68.84;101268.41;130398;1268;109146;-78
2022/09/05 01:15:05;;;;;;;3.20;2.40;;;;;;;10.21;68.82;101268.75;130355;1268;109163;-78
2022/09/05 01:18:50;;;;;;;3.60;2.20;;;;;;;10.15;68.84;101270.70;130373;1268;109163;-78
2022/09/05 01:22:38;;;;;;;3.70;2.50;;;;;;;10.07;68.96;101271.19;130424;1268;109133;-77
2022/09/05 01:26:13;;;;;;;2.80;2.30;;;;;;;9.99;68.99;101275.73;130435;1267;112156;-77
2022/09/05 01:29:45;;;;;;;3.70;2.30;;;;;;;9.93;69.15;101278.38;130491;1268;109188;-77
2022/09/05 01:33:19;;;;;;;2.70;2.00;;;;;;;9.86;69.17;101281.95;130477;1268;109128;-75
2022/09/05 01:36:54;;;;;;;2.90;2.30;;;;;;;9.78;69.24;101284.31;130494;1268;109142;-76
2022/09/05 01:40:25;;;;;;;5.10;2.50;;;;;;;9.68;69.28;101285.02;130408;1267;111385;-77
2022/09/05 01:44:11;;;;;;;2.40;1.90;;;;;;;9.61;69.30;101288.73;130448;1268;109143;-76
2022/09/05 01:47:50;;;;;;;3.00;1.80;;;;;;;9.60;69.30;101287.54;130415;1266;112041;-78
2022/09/05 01:51:23;;;;;;;3.70;2.30;;;;;;;9.61;69.25;101292.80;130569;1268;107046;-79
2022/09/05 01:55:06;;;;;;;3.10;2.20;;;;;;;9.61;69.14;101294.09;130442;1268;109155;-78
2022/09/05 01:58:42;;;;;;;4.20;2.40;;;;;;;9.59;69.13;101297.79;130441;1268;109245;-77
2022/09/05 02:02:32;;;;;;;3.00;2.40;;;;;;;9.55;69.11;101298.59;130398;1268;109169;-76
2022/09/05 02:06:11;;;;;;;4.00;2.60;;;;;;;9.49;69.20;101307.42;130367;1268;109142;-75
2022/09/05 02:09:48;;;;;;;4.20;2.20;;;;;;;9.44;69.23;101303.37;130242;1268;110538;-77
2022/09/05 02:13:25;;;;;;;2.90;2.10;;;;;;;9.40;69.14;101304.94;130375;1267;109128;-76
2022/09/05 02:16:52;;;;;;;3.90;2.10;;;;;;;9.32;69.16;101303.04;130366;1268;110786;-77
2022/09/05 02:20:20;;;;;;;3.20;2.00;;;;;;;9.25;69.19;101300.60;130336;1268;109142;-76
2022/09/05 02:23:50;;;;;;;3.70;1.90;;;;;;;9.17;69.24;101302.25;130371;1268;109137;-76
2022/09/05 02:27:20;;;;;;;3.90;2.10;;;;;;;9.09;69.31;101303.94;130371;1268;109155;-76
2022/09/05 02:30:49;;;;;;;2.50;1.90;;;;;;;8.99;69.50;101306.11;130438;1268;109134;-77
2022/09/05 02:34:20;;;;;;;3.20;1.90;;;;;;;8.96;69.40;101314.89;130342;1268;109162;-75
2022/09/05 02:37:49;;;;;;;2.60;1.90;;;;;;;8.96;69.51;101317.20;130356;1268;109233;-76
2022/09/05 02:41:28;;;;;;;3.30;1.80;;;;;;;8.96;69.37;101324.41;130409;1268;109146;-74
2022/09/05 02:45:12;;;;;;;2.70;2.00;;;;;;;8.95;69.35;101322.73;130440;1268;107298;-75
2022/09/05 02:48:54;;;;;;;3.80;2.40;;;;;;;8.92;69.30;101319.80;130396;1268;109133;-76
2022/09/05 02:52:19;;;;;;;3.60;2.30;;;;;;;8.90;69.25;101315.00;130400;1268;109707;-83
2022/09/05 02:56:00;;;;;;;4.00;2.30;;;;;;;8.85;69.20;101311.30;130596;1268;109159;-84
2022/09/05 02:59:43;;;;;;;6.00;2.30;;;;;;;8.79;69.33;101310.16;130621;1268;109360;-84
2022/09/05 03:03:17;;;;;;;3.10;2.10;;;;;;;8.69;69.19;101307.88;130665;1268;109169;-84
2022/09/05 03:06:49;;;;;;;3.80;2.10;;;;;;;8.62;69.32;101302.13;130462;1268;109137;-85
2022/09/05 03:10:25;;;;;;;2.30;1.90;;;;;;;8.57;69.28;101302.02;130558;1268;109145;-82
2022/09/05 03:14:23;;;;;;;2.70;2.10;;;;;;;8.51;69.18;101301.98;130584;1268;109152;-82
2022/09/05 03:18:25;;;;;;;2.80;2.20;;;;;;;8.45;69.21;101302.52;130569;1268;109137;-81
2022/09/05 03:22:19;;;;;;;2.80;2.20;;;;;;;8.39;69.19;101299.61;130584;1268;109146;-84
2022/09/05 03:26:24;;;;;;;3.50;1.90;;;;;;;8.32;69.31;101299.63;130589;1265;109169;-84
2022/09/05 03:30:07;;;;;;;3.10;1.60;;;;;;;8.29;69.18;101301.60;130629;1265;109248;-82
2022/09/05 03:34:16;;;;;;;5.30;1.90;;;;;;;8.28;69.23;101301.61;130607;1267;109271;-82
2022/09/05 03:37:59;;;;;;;3.40;1.90;;;;;;;8.32;69.11;101299.77;130604;1265;109118;-82
2022/09/05 03:41:35;;;;;;;2.80;2.10;;;;;;;8.31;69.10;101303.39;130636;1265;109161;-82
2022/09/05 03:45:19;;;;;;;2.70;2.10;;;;;;;8.26;69.12;101301.05;130863;1268;109127;-82
2022/09/05 03:49:00;;;;;;;2.70;1.90;;;;;;;8.21;69.02;101308.73;130699;1268;109162;-82
2022/09/05 03:52:33;;;;;;;3.90;2.20;;;;;;;8.17;69.09;101314.17;130663;1268;109133;-82
2022/09/05 03:56:15;;;;;;;3.60;2.00;;;;;;;8.15;69.00;101315.51;130716;1268;109133;-83
2022/09/05 04:00:06;;;;;;;2.90;2.10;;;;;;;8.14;69.15;101324.30;130785;1268;109137;-82
2022/09/05 04:03:33;;;;;;;2.60;2.00;;;;;;;8.10;69.02;101328.11;130427;1269;109138;-87
2022/09/05 04:06:59;;;;;;;3.20;2.10;;;;;;;8.02;69.11;101327.84;130493;1268;109126;-87
2022/09/05 04:10:32;;;;;;;2.80;1.90;;;;;;;7.97;68.99;101331.69;130573;1268;109184;-87
2022/09/05 04:14:01;;;;;;;2.40;1.80;;;;;;;7.94;69.24;101331.73;130423;1267;109143;-87
2022/09/05 04:17:31;;;;;;;2.90;2.10;;;;;;;7.92;69.18;101335.77;130460;1268;109159;-88
2022/09/05 04:21:00;;;;;;;3.40;1.90;;;;;;;7.91;69.30;101337.27;130436;1268;109347;-85
2022/09/05 04:24:32;;;;;;;4.40;3.10;;;;;;;7.91;69.34;101345.62;130483;1268;109121;-87
2022/09/05 04:28:04;;;;;;;3.30;2.20;;;;;;;7.91;69.44;101348.42;130326;1268;109184;-87
2022/09/05 04:31:43;;;;;;;3.60;1.90;;;;;;;7.93;69.42;101355.57;130295;1268;109181;-87
2022/09/05 04:35:22;;;;;;;2.30;1.80;;;;;;;8.02;69.33;101366.58;130299;1270;111699;-82
2022/09/05 04:39:04;;;;;;;3.10;1.90;;;;;;;8.22;69.20;101368.36;130342;1268;109170;-87
2022/09/05 04:42:29;;;;;;;3.50;2.00;;;;;;;8.49;69.44;101370.54;130660;1268;109211;-85
2022/09/05 04:45:59;;;;;;;3.50;1.90;;;;;;;8.74;69.33;101366.02;130532;1268;110846;-83
2022/09/05 04:49:27;;;;;;;3.50;2.40;;;;;;;9.00;69.36;101370.86;130418;1268;109151;-74
2022/09/05 04:53:15;;;;;;;4.10;2.30;;;;;;;9.19;69.15;101373.15;130420;1268;109242;-74
2022/09/05 04:56:44;;;;;;;4.10;2.30;;;;;;;9.39;69.14;101378.19;130394;1267;110717;-75
2022/09/05 05:00:14;;;;;;;5.20;2.20;;;;;;;9.57;69.21;101377.52;130196;1268;109288;-75
2022/09/05 05:03:39;;;;;;;2.90;2.10;;;;;;;9.76;69.40;101378.34;130366;1268;109667;-73
2022/09/05 05:07:10;;;;;;;3.20;2.30;;;;;;;9.93;69.46;101382.20;130379;1266;109121;-76
2022/09/05 05:10:42;;;;;;;2.80;1.60;;;;;;;10.08;69.51;101384.38;130445;1268;109234;-73
2022/09/05 05:14:12;;;;;;;3.70;2.00;;;;;;;10.21;69.29;101381.52;130340;1266;109368;-73
2022/09/05 05:17:40;;;;;;;7.20;1.90;;;;;;;10.36;69.53;101381.41;130352;1268;109322;-73
2022/09/05 05:21:06;;;;;;;8.30;2.20;;;;;;;10.49;69.79;101377.35;130340;1268;108387;-73
2022/09/05 05:24:33;;;;;;;2.60;1.70;;;;;;;10.58;69.82;101385.89;130409;1268;109140;-72
2022/09/05 05:28:09;;;;;;;2.50;1.80;;;;;;;10.66;69.96;101383.28;130406;1268;109143;-73
2022/09/05 05:31:34;;;;;;;5.10;2.60;;;;;;;10.77;69.94;101391.64;130530;1268;109200;-71
2022/09/05 05:35:02;;;;;;;4.10;2.00;;;;;;;10.84;70.24;101391.43;130395;1266;109152;-73
2022/09/05 05:38:37;;;;;;;4.90;2.00;;;;;;;10.91;70.73;101391.19;130329;1268;109139;-71
2022/09/05 05:42:03;;;;;;;2.50;1.30;;;;;;;11.03;70.67;101389.83;130496;1267;109128;-73
2022/09/05 05:45:32;;;;;;;3.80;1.60;;;;;;;11.14;70.12;101388.95;130230;1268;109145;-72
2022/09/05 05:49:04;;;;;;;2.90;1.50;;;;;;;11.24;69.70;101388.80;130184;1268;109871;-72
2022/09/05 05:52:57;;;;;;;2.80;1.60;;;;;;;11.33;69.78;101389.83;130213;1268;109153;-72
2022/09/05 05:57:06;;;;;;;4.00;1.50;;;;;;;11.45;69.87;101393.61;130466;1268;109150;-72
2022/09/05 06:00:47;;;;;;;3.80;1.50;;;;;;;11.56;69.23;101399.80;129541;1276;109138;-74
2022/09/05 06:04:39;;;;;;;1.90;1.40;;;;;;;11.65;69.14;101402.10;129733;1271;109308;-74
2022/09/05 06:08:19;;;;;;;1.30;1.10;;;;;;;11.74;69.02;101402.91;130279;1268;107497;-73
2022/09/05 06:12:00;;;;;;;3.20;1.80;;;;;;;11.81;69.02;101405.67;130370;1268;109159;-72
2022/09/05 06:15:51;;;;;;;4.30;1.40;;;;;;;11.90;68.68;101409.77;130328;1268;107095;-73
2022/09/05 06:19:41;;;;;;;4.20;1.30;;;;;;;11.98;68.55;101412.99;130318;1268;109146;-72
2022/09/05 06:23:29;;;;;;;2.00;1.30;;;;;;;12.07;68.36;101409.48;130330;1268;109154;-73
2022/09/05 06:27:21;;;;;;;2.60;1.10;;;;;;;12.14;68.14;101406.02;130335;1268;109135;-73
2022/09/05 06:30:52;;;;;;;3.10;1.20;;;;;;;12.23;67.78;101405.81;130314;1268;109125;-72
2022/09/05 06:34:33;;;;;;;4.10;1.30;;;;;;;12.29;67.68;101401.14;130290;1268;109334;-73
2022/09/05 06:38:11;;;;;;;2.20;1.20;;;;;;;12.38;67.54;101402.66;130335;1268;109130;-72
2022/09/05 06:41:44;;;;;;;2.80;1.50;;;;;;;12.46;67.57;101399.98;130334;1268;106408;-72
2022/09/05 06:45:34;;;;;;;3.00;1.00;;;;;;;12.55;67.53;101404.30;130298;1268;109162;-73
2022/09/05 06:49:07;;;;;;;2.80;1.30;;;;;;;12.67;67.51;101411.49;130304;1268;109136;-73
2022/09/05 06:53:00;;;;;;;2.20;1.30;;;;;;;12.77;67.37;101414.70;130327;1268;109184;-72
2022/09/05 06:56:51;;;;;;;1.90;1.30;;;;;;;12.89;67.36;101411.98;130385;1268;109155;-73
2022/09/05 07:00:24;;;;;;;2.80;1.00;;;;;;;13.01;67.14;101413.10;130335;1268;109139;-72
2022/09/05 07:04:08;;;;;;;2.40;1.10;;;;;;;13.11;67.13;101420.23;130339;1268;109250;-73
2022/09/05 07:07:39;;;;;;;2.90;1.20;;;;;;;13.23;67.00;101419.42;130307;1268;109139;-73
2022/09/05 07:11:07;;;;;;;4.10;1.10;;;;;;;13.35;66.90;101421.05;130319;1268;109124;-72
2022/09/05 07:14:35;;;;;;;2.90;0.90;;;;;;;13.46;66.73;101417.34;130375;1268;109143;-71
2022/09/05 07:18:07;;;;;;;1.80;0.90;;;;;;;13.55;66.43;101417.89;130324;1268;107367;-72
2022/09/05 07:21:37;;;;;;;2.80;1.00;;;;;;;13.66;66.35;101416.94;130316;1268;109178;-73
2022/09/05 07:25:06;;;;;;;1.60;1.00;;;;;;;13.77;66.13;101422.16;130364;1268;109245;-71
2022/09/05 07:28:30;;;;;;;3.80;1.50;;;;;;;13.88;66.16;101422.19;130288;1268;109161;-72
2022/09/05 07:31:55;;;;;;;1.90;1.00;;;;;;;14.00;66.21;101417.65;130307;1268;109144;-72
2022/09/05 07:35:23;;;;;;;2.50;1.00;;;;;;;14.11;65.97;101418.39;130289;1268;109235;-72
2022/09/05 07:38:50;;;;;;;1.60;1.00;;;;;;;14.21;65.67;101420.65;130289;1268;110636;-72
2022/09/05 07:42:20;;;;;;;1.50;1.00;;;;;;;14.34;66.10;101412.59;130295;1268;109185;-72
2022/09/05 07:45:50;;;;;;;2.10;0.90;;;;;;;14.49;66.09;101413.06;130319;1268;109184;-72
2022/09/05 07:49:17;;;;;;;0.90;0.60;;;;;;;14.63;65.48;101416.39;130219;1268;109173;-72
2022/09/05 07:52:43;;;;;;;1.50;0.60;;;;;;;14.73;65.04;101419.54;130099;1268;109151;-73
2022/09/05 07:56:09;;;;;;;0.80;0.50;;;;;;;14.83;64.32;101423.91;130322;1268;109139;-72
2022/09/05 07:59:36;;;;;;;1.10;0.60;;;;;;;14.94;64.11;101429.94;130320;1268;112892;-71
2022/09/05 08:03:09;;;;;;;0.70;0.60;;;;;;;15.05;64.39;101429.07;130301;1268;109205;-72
2022/09/05 08:06:32;;;;;;;1.10;0.50;;;;;;;15.19;64.26;101427.48;130368;1267;110812;-71
2022/09/05 08:10:01;;;;;;;1.30;0.50;;;;;;;15.31;63.34;101424.69;130367;1267;112056;-71
2022/09/05 08:13:28;;;;;;;0.80;0.60;;;;;;;15.42;63.42;101424.30;130286;1268;108731;-72
2022/09/05 08:16:50;;;;;;;2.40;0.50;;;;;;;15.50;63.20;101421.98;130282;1268;109133;-72
2022/09/05 08:20:29;;;;;;;0.80;0.50;;;;;;;15.60;61.81;101427.10;130316;1268;109145;-72
2022/09/05 08:24:08;;;;;;;1.20;0.60;;;;;;;15.67;61.95;101424.05;130267;1268;109156;-72
2022/09/05 08:27:42;;;;;;;1.00;0.50;;;;;;;15.77;61.42;101423.98;130318;1268;109287;-72
2022/09/05 08:31:11;;;;;;;0.70;0.50;;;;;;;15.85;60.76;101422.04;130316;1268;111145;-71
2022/09/05 08:34:43;;;;;;;3.70;0.60;;;;;;;15.94;60.73;101420.61;130275;1265;111567;-71
2022/09/05 08:38:06;;;;;;;;;;;;;;;16.04;60.26;101419.92;130284;1268;109133;-72
2022/09/05 08:41:38;;;;;;;0.60;0.40;;;;;;;16.12;59.98;101418.91;130313;1268;109157;-72
2022/09/05 08:45:13;;;;;;;1.00;0.50;;;;;;;16.18;59.26;101415.63;130383;1268;109233;-73
2022/09/05 08:48:54;;;;;;;0.70;0.40;;;;;;;16.29;59.82;101413.52;130345;1268;109117;-72
2022/09/05 08:52:28;;;;;;;1.40;0.90;;;;;;;16.40;59.69;101412.95;130348;1268;109142;-72
2022/09/05 08:55:58;;;;;;;1.30;0.80;;;;;;;16.49;58.89;101404.36;130295;1268;110873;-71
2022/09/05 08:59:42;;;;;;;0.90;0.50;;;;;;;16.59;58.53;101402.98;130317;1267;109644;-71
2022/09/05 09:03:22;;;;;;;1.00;0.40;;;;;;;16.67;58.40;101402.70;130322;1268;109135;-73
2022/09/05 09:07:08;;;;;;;0.50;0.50;;;;;;;16.71;56.79;101397.95;130281;1267;109146;-71
2022/09/05 09:10:45;;;;;;;3.10;1.20;;;;;;;16.78;57.64;101396.95;130344;1268;109155;-72
2022/09/05 09:14:30;;;;;;;1.50;0.70;;;;;;;16.87;57.64;101389.96;130359;1268;109117;-72
2022/09/05 09:17:55;;;;;;;1.10;0.70;;;;;;;16.94;57.26;101387.37;130295;1268;109150;-73
2022/09/05 09:21:34;;;;;;;1.10;0.80;;;;;;;16.98;56.69;101384.78;130319;1268;110808;-72
2022/09/05 09:25:07;;;;;;;1.50;1.00;;;;;;;17.03;56.54;101381.67;130314;1268;109154;-71
2022/09/05 09:28:47;;;;;;;2.90;1.10;;;;;;;17.11;56.56;101379.25;130330;1268;109133;-72
2022/09/05 09:32:14;;;;;;;1.00;0.70;;;;;;;17.17;55.38;101381.34;130441;1268;106937;-72
2022/09/05 09:35:51;;;;;;;1.10;0.80;;;;;;;17.20;55.22;101380.54;130267;1268;110731;-74
2022/09/05 09:39:26;;;;;;;2.80;0.80;;;;;;;17.25;55.07;101373.39;130273;1268;109136;-72
2022/09/05 09:42:53;;;;;;;1.20;0.80;;;;;;;17.34;55.13;101372.95;130291;1268;108344;-72
2022/09/05 09:46:26;;;;;;;0.70;0.50;;;;;;;17.39;54.72;101369.56;130277;1268;109131;-70
2022/09/05 09:50:11;;;;;;;0.60;0.50;;;;;;;17.45;54.51;101369.55;130278;1268;109106;-72
2022/09/05 09:53:51;;;;;;;0.60;0.50;;;;;;;17.52;54.48;101364.07;130287;1268;109150;-72
2022/09/05 09:57:52;;;;;;;1.00;0.60;;;;;;;17.57;53.92;101365.31;130306;1268;109168;-72
2022/09/05 10:01:27;;;;;;;2.50;0.60;;;;;;;17.64;53.94;101368.00;130374;1268;112820;-72
2022/09/05 10:05:25;;;;;;;0.80;0.40;;;;;;;17.67;53.13;101366.90;130264;1268;109266;-72
2022/09/05 10:09:06;;;;;;;1.30;0.80;;;;;;;17.71;53.38;101363.98;130281;1267;109261;-72
2022/09/05 10:12:53;;;;;;;2.30;0.60;;;;;;;17.74;52.62;101364.16;130305;1267;109190;-72
2022/09/05 10:16:40;;;;;;;1.20;0.60;;;;;;;17.82;52.61;101363.46;130381;1268;109169;-73
2022/09/05 10:20:21;;;;;;;1.20;0.40;;;;;;;17.90;52.75;101360.61;130217;1268;112188;-72
2022/09/05 10:24:08;;;;;;;2.40;0.40;;;;;;;17.94;52.05;101362.88;130267;1268;109143;-71
2022/09/05 10:27:46;;;;;;;2.20;0.50;;;;;;;17.92;51.25;101356.41;130351;1267;109233;-72
2022/09/05 10:31:17;;;;;;;0.80;0.40;;;;;;;17.97;51.45;101355.64;130274;1268;109137;-72
2022/09/05 10:34:47;;;;;;;1.40;0.50;;;;;;;17.97;51.44;101352.23;130280;1268;112634;-72
2022/09/05 10:38:16;;;;;;;1.60;0.40;;;;;;;18.02;51.52;101348.41;130445;1267;109127;-72
2022/09/05 10:41:49;;;;;;;0.60;0.40;;;;;;;18.11;51.66;101344.91;130336;1267;109162;-72
2022/09/05 10:45:21;;;;;;;1.00;0.50;;;;;;;18.14;51.07;101341.08;130290;1267;109190;-71
2022/09/05 10:48:52;;;;;;;0.70;0.40;;;;;;;18.18;51.24;101342.15;130280;1268;109175;-72
2022/09/05 10:52:20;;;;;;;1.60;0.40;;;;;;;18.22;51.01;101339.29;130222;1268;109114;-71
2022/09/05 10:55:56;;;;;;;0.60;0.40;;;;;;;18.24;50.34;101337.42;130213;1267;109143;-72
2022/09/05 10:59:28;;;;;;;0.40;0.40;;;;;;;18.28;50.43;101337.73;130313;1268;109291;-72
2022/09/05 11:02:59;;;;;;;0.60;0.50;;;;;;;18.32;50.38;101336.20;130261;1268;109191;-73
2022/09/05 11:06:35;;;;;;;1.70;0.50;;;;;;;18.36;50.17;101333.85;130278;1268;109145;-71
2022/09/05 11:10:11;;;;;;;0.70;0.40;;;;;;;18.42;50.16;101336.91;130285;1268;106753;-72
2022/09/05 11:13:45;;;;;;;1.10;0.50;;;;;;;18.45;49.30;101330.17;130278;1268;109122;-73
2022/09/05 11:17:19;;;;;;;1.20;0.40;;;;;;;18.47;48.58;101331.42;130303;1268;109265;-72
2022/09/05 11:21:07;;;;;;;0.50;0.40;;;;;;;18.48;49.40;101327.48;130253;1267;109941;-72
2022/09/05 11:24:37;;;;;;;0.70;0.60;;;;;;;18.54;49.54;101326.27;130273;1267;111187;-73
2022/09/05 11:28:12;;;;;;;0.60;0.40;;;;;;;18.61;49.18;101327.48;130248;1267;109213;-73
2022/09/05 11:31:45;;;;;;;1.60;0.50;;;;;;;18.67;49.14;101317.36;130406;1267;109168;-73
2022/09/05 11:35:22;;;;;;;0.60;0.40;;;;;;;18.68;48.68;101315.01;130305;1267;108281;-73
2022/09/05 11:38:59;;;;;;;0.70;0.40;;;;;;;18.66;48.12;101317.27;130366;1268;109663;-73
2022/09/05 11:42:42;;;;;;;1.60;0.40;;;;;;;18.67;48.30;101307.38;130314;1268;109153;-73
2022/09/05 11:46:26;;;;;;;1.40;0.50;;;;;;;18.72;47.49;101306.63;130359;1268;109170;-73
2022/09/05 11:50:17;;;;;;;0.40;0.30;;;;;;;18.74;48.07;101304.83;130275;1267;109283;-73
2022/09/05 11:54:02;;;;;;;0.20;0.20;;;;;;;18.76;47.43;101302.41;130257;1268;109246;-73
2022/09/05 11:57:53;;;;;;;0.90;0.30;;;;;;;18.77;47.58;101301.32;130256;1268;109143;-72
2022/09/05 12:01:29;;;;;;;0.60;0.50;;;;;;;18.75;45.29;101302.80;130351;1267;109143;-73
2022/09/05 12:05:07;;;;;;;0.80;0.50;;;;;;;18.77;45.79;101301.15;130325;1267;110703;-73
2022/09/05 12:08:39;;;;;;;1.60;0.30;;;;;;;18.80;46.55;101301.54;130317;1268;111202;-73
2022/09/05 12:12:25;;;;;;;1.70;0.40;;;;;;;18.81;46.00;101299.63;130283;1267;109146;-72
2022/09/05 12:15:48;;;;;;;3.90;0.40;;;;;;;18.84;46.30;101295.52;130312;1268;109133;-73
2022/09/05 12:19:31;;;;;;;1.10;0.40;;;;;;;18.88;46.59;101287.44;128970;1267;1792883;-73
2022/09/05 12:23:02;;;;;;;1.20;0.40;;;;;;;18.94;46.14;101285.37;130269;1268;109142;-73
2022/09/05 12:26:33;;;;;;;0.70;0.40;;;;;;;18.95;45.78;101285.02;130288;1267;106589;-74
2022/09/05 12:30:04;;;;;;;0.90;0.30;;;;;;;18.96;45.80;101283.86;130318;1268;110890;-72
2022/09/05 12:33:31;;;;;;;0.70;0.40;;;;;;;18.95;45.16;101280.47;130306;1268;109123;-73
2022/09/05 12:36:57;;;;;;;1.10;0.50;;;;;;;18.94;45.66;101270.02;130301;1267;109275;-73
2022/09/05 12:40:28;;;;;;;4.70;0.50;;;;;;;18.97;45.84;101273.02;130265;1267;111204;-73
2022/09/05 12:44:19;;;;;;;0.70;0.30;;;;;;;19.00;45.41;101270.61;130320;1268;109151;-73
2022/09/05 12:47:56;;;;;;;2.90;0.50;;;;;;;18.99;45.52;101263.44;130275;1267;109134;-74
2022/09/05 12:51:22;;;;;;;0.70;0.40;;;;;;;19.01;45.57;101261.94;130352;1268;109298;-72
2022/09/05 12:54:53;;;;;;;1.20;0.50;;;;;;;19.02;45.37;101263.40;130326;1268;108213;-73
2022/09/05 12:58:24;;;;;;;0.70;0.40;;;;;;;19.03;45.14;101262.42;130367;1268;109140;-74
2022/09/05 13:02:01;;;;;;;0.70;0.30;;;;;;;19.02;44.04;101258.16;130330;1267;109144;-74
2022/09/05 13:05:44;;;;;;;2.00;0.40;;;;;;;19.03;45.01;101253.39;130328;1268;109607;-74
2022/09/05 13:09:16;;;;;;;2.70;0.40;;;;;;;19.03;43.83;101253.06;130573;1265;109151;-73
2022/09/05 13:12:46;;;;;;;0.90;0.30;;;;;;;19.03;44.38;101252.11;130447;1268;112626;-73
2022/09/05 13:16:12;;;;;;;0.50;0.40;;;;;;;19.03;43.87;101253.56;130458;1268;109245;-73
2022/09/05 13:19:44;;;;;;;0.60;0.30;;;;;;;19.03;44.19;101253.96;130458;1268;110786;-73
2022/09/05 13:23:18;;;;;;;0.60;0.50;;;;;;;19.03;43.85;101250.89;130478;1267;109152;-74
2022/09/05 13:26:50;;;;;;;0.80;0.40;;;;;;;19.02;42.67;101248.51;130491;1268;107654;-75
2022/09/05 13:30:15;;;;;;;1.60;0.50;;;;;;;19.01;43.57;101247.30;130491;1267;109146;-75
2022/09/05 13:33:44;;;;;;;2.70;1.20;;;;;;;19.01;42.57;101249.52;130446;1268;109206;-73
2022/09/05 13:37:14;;;;;;;1.40;0.40;;;;;;;19.02;43.42;101247.14;130402;1267;109154;-73
2022/09/05 13:40:41;;;;;;;0.80;0.40;;;;;;;19.02;41.66;101247.52;130460;1268;109133;-73
2022/09/05 13:44:13;;;;;;;0.80;0.40;;;;;;;19.01;42.21;101247.91;130491;1266;110789;-73
2022/09/05 13:47:55;;;;;;;1.40;0.40;;;;;;;19.02;42.50;101244.48;130472;1267;109235;-74
2022/09/05 13:51:35;;;;;;;1.40;0.50;;;;;;;19.02;41.85;101243.81;130492;1268;109127;-73
2022/09/05 13:55:14;;;;;;;0.40;0.30;;;;;;;19.04;42.33;101238.88;130452;1268;107489;-74
2022/09/05 13:58:41;;;;;;;2.40;0.30;;;;;;;19.03;42.01;101240.77;130616;1265;109127;-73
2022/09/05 14:02:31;;;;;;;0.70;0.30;;;;;;;19.02;42.08;101239.64;130603;1265;109178;-72
2022/09/05 14:06:03;;;;;;;1.10;0.40;;;;;;;19.03;41.82;101238.49;130569;1265;109157;-75
2022/09/05 14:09:54;;;;;;;3.80;0.50;;;;;;;19.00;40.98;101233.16;130578;1264;110548;-76
2022/09/05 14:13:24;;;;;;;0.50;0.40;;;;;;;19.00;41.80;101235.40;130598;1265;109663;-75
2022/09/05 14:16:53;;;;;;;1.50;0.40;;;;;;;18.98;41.59;101232.95;130584;1265;109147;-74
2022/09/05 14:24:04;;;;;;;1.50;0.40;;;;;;;18.99;42.26;101230.78;130492;1265;109130;-73
2022/09/05 14:27:29;;;;;;;2.70;0.80;;;;;;;18.97;42.20;101231.45;130488;1267;109221;-77
2022/09/05 14:30:49;;;;;;;0.70;0.50;;;;;;;18.93;41.79;101231.14;130481;1267;108673;-74
2022/09/05 14:34:21;;;;;;;0.30;0.30;;;;;;;18.90;41.78;101228.84;130572;1268;109901;-76
2022/09/05 14:37:37;;;;;;;0.40;0.30;;;;;;;18.88;40.92;101217.77;130456;1267;108894;-74
2022/09/05 14:41:34;;;;;;;1.20;0.60;;;;;;;18.87;41.78;101219.14;130465;1268;108971;-73
2022/09/05 14:45:05;;;;;;;2.20;0.60;;;;;;;18.85;41.76;101217.20;130482;1266;108866;-76
2022/09/05 14:48:37;;;;;;;1.90;1.00;;;;;;;18.83;42.20;101213.55;130555;1268;107458;-75
2022/09/05 14:51:47;;;;;;;1.90;0.60;;;;;;;18.82;41.95;101215.15;130401;1266;108866;-79
2022/09/05 14:54:56;;;;;;;0.80;0.50;;;;;;;18.80;41.67;101213.01;130166;1268;107351;-75
2022/09/05 14:58:01;;;;;;;0.90;0.50;;;;;;;18.77;41.76;101209.39;130358;1266;108734;-76
2022/09/05 15:01:14;;;;;;;0.50;0.40;;;;;;;18.75;41.78;101206.11;130366;1266;106952;-76
2022/09/05 15:04:23;;;;;;;1.20;0.50;;;;;;;18.73;41.76;101204.71;130374;1267;108598;-76
2022/09/05 15:07:31;;;;;;;1.10;0.50;;;;;;;18.69;41.99;101201.52;130415;1268;108767;-76
2022/09/05 15:10:41;;;;;;;0.90;0.40;;;;;;;18.67;41.90;101203.31;130540;1268;108929;-76
2022/09/05 15:13:56;;;;;;;0.90;0.40;;;;;;;18.64;41.98;101198.20;130524;1268;108831;-75
2022/09/05 15:17:05;;;;;;;1.00;0.60;;;;;;;18.62;41.99;101197.54;130434;1268;108840;-76
2022/09/05 15:20:10;;;;;;;0.50;0.40;;;;;;;18.59;42.04;101193.25;130581;1265;107782;-76
2022/09/05 15:23:32;;;;;;;1.10;0.60;;;;;;;18.55;42.15;101194.55;130332;1268;108884;-76
2022/09/05 15:26:49;;;;;;;0.50;0.30;;;;;;;18.52;41.43;101192.19;130370;1268;108524;-74
2022/09/05 15:30:00;;;;;;;0.70;0.40;;;;;;;18.50;42.09;101188.90;130379;1267;108846;-78
2022/09/05 15:33:20;;;;;;;1.20;0.50;;;;;;;18.45;41.90;101190.86;130356;1265;107076;-75
2022/09/05 15:36:35;;;;;;;0.50;0.40;;;;;;;18.41;41.85;101190.59;130409;1264;108887;-78
2022/09/05 15:39:40;;;;;;;0.90;0.40;;;;;;;18.38;41.58;101188.45;130395;1266;109111;-74
2022/09/05 15:42:51;;;;;;;1.10;0.70;;;;;;;18.35;42.02;101189.94;130454;1265;108805;-73
2022/09/05 15:46:03;;;;;;;1.00;0.40;;;;;;;18.30;41.78;101189.02;130400;1265;108938;-77
2022/09/05 15:49:13;;;;;;;0.70;0.50;;;;;;;18.27;41.81;101187.52;130441;1268;107840;-76
2022/09/05 15:52:38;;;;;;;1.20;0.40;;;;;;;18.21;41.92;101183.05;130381;1267;108680;-76
2022/09/05 15:55:49;;;;;;;0.70;0.50;;;;;;;18.16;41.87;101183.53;130381;1268;109496;-74
2022/09/05 15:58:57;;;;;;;1.00;0.50;;;;;;;18.11;42.16;101185.53;130393;1266;107397;-73
2022/09/05 16:02:09;;;;;;;1.70;0.50;;;;;;;18.05;42.05;101181.69;130393;1267;107812;-73
2022/09/05 16:05:18;;;;;;;2.00;0.60;;;;;;;18.01;42.43;101181.30;130382;1268;109817;-72
2022/09/05 16:08:27;;;;;;;1.60;1.20;;;;;;;17.95;42.52;101172.10;130379;1268;109167;-73
2022/09/05 16:11:38;;;;;;;1.50;0.80;;;;;;;17.89;42.79;101170.27;130412;1267;108825;-73
2022/09/05 16:14:47;;;;;;;1.30;0.60;;;;;;;17.82;42.60;101174.28;130508;1266;108664;-74
2022/09/05 16:17:57;;;;;;;0.60;0.50;;;;;;;17.74;42.48;101171.21;130439;1265;108809;-75